Main page
METAR-TAF:

METAR-TAF

Airports :

Hebron Municipal Airport

Hebron, Nebraska, United States

latitude: 40-09-08N, longitude: 097-35-13W, elevation: 1466 ft

Current weather observation

The report was made 38 minutes ago, at 03:35 UTC
Wind 10 mph from the North with gusts up to 16 mph
Temperature 66°F
Humidity 88%
Pressure 29.92 in. Hg
Visibility: 10 miles
Broken clouds at a height of 3900 ft
Overcast at a height of 4700 ft

METAR: KHJH 190335Z AUTO 01009G14KT 10SM BKN039 OVC047 19/17 A2992 RMK AO2 T01860167

Time: 23:13 (04:13 UTC)


TAF: missing

Weather observations and forecasts of more than 4000 airports (METAR and TAF reports).

The available stations are represented by yellow and red dots on the map.

Hover mouse over dot to see the name of the station.

Then click to see weather observations and forecasts.

To change the map : click on the green buttons with a black cross to zoom in, on the green button with a dash to zoom out, or on the green arrows for adjacent maps.


METAR-TAF: